sensor_id;sensor_type;location;lat;lon;timestamp;temperature;humidity
20829;DHT22;10575;50.124;8.582;2023-01-30T00:00:52;1.90;99.90
20829;DHT22;10575;50.124;8.582;2023-01-30T00:03:18;2.00;99.90
20829;DHT22;10575;50.124;8.582;2023-01-30T00:05:44;1.90;99.90
20829;DHT22;10575;50.124;8.582;2023-01-30T00:08:09;1.90;99.90
20829;DHT22;10575;50.124;8.582;2023-01-30T00:10:35;2.00;99.90
20829;DHT22;10575;50.124;8.582;2023-01-30T00:13:00;2.00;99.90
20829;DHT22;10575;50.124;8.582;2023-01-30T00:15:25;2.00;99.90
20829;DHT22;10575;50.124;8.582;2023-01-30T00:17:51;1.90;99.90
20829;DHT22;10575;50.124;8.582;2023-01-30T00:20:16;1.90;99.90
20829;DHT22;10575;50.124;8.582;2023-01-30T00:22:42;2.10;99.90
20829;DHT22;10575;50.124;8.582;2023-01-30T00:25:08;2.10;99.90
20829;DHT22;10575;50.124;8.582;2023-01-30T00:27:33;2.10;99.90
20829;DHT22;10575;50.124;8.582;2023-01-30T00:29:59;2.00;99.90
20829;DHT22;10575;50.124;8.582;2023-01-30T00:32:26;2.00;99.90
20829;DHT22;10575;50.124;8.582;2023-01-30T00:34:52;2.10;99.90
20829;DHT22;10575;50.124;8.582;2023-01-30T00:37:17;2.20;99.90
20829;DHT22;10575;50.124;8.582;2023-01-30T00:39:43;2.10;99.90
20829;DHT22;10575;50.124;8.582;2023-01-30T00:42:08;2.10;99.90
20829;DHT22;10575;50.124;8.582;2023-01-30T00:44:53;2.00;99.90
20829;DHT22;10575;50.124;8.582;2023-01-30T00:47:37;1.90;99.90
20829;DHT22;10575;50.124;8.582;2023-01-30T00:50:03;1.90;99.90
20829;DHT22;10575;50.124;8.582;2023-01-30T00:52:28;1.90;99.90
20829;DHT22;10575;50.124;8.582;2023-01-30T00:54:54;1.90;99.90
20829;DHT22;10575;50.124;8.582;2023-01-30T00:57:19;1.80;99.90
20829;DHT22;10575;50.124;8.582;2023-01-30T00:59:45;1.80;99.90
20829;DHT22;10575;50.124;8.582;2023-01-30T01:02:10;1.90;99.90
20829;DHT22;10575;50.124;8.582;2023-01-30T01:04:36;2.00;99.90
20829;DHT22;10575;50.124;8.582;2023-01-30T01:07:08;2.10;99.90
20829;DHT22;10575;50.124;8.582;2023-01-30T01:09:34;2.10;99.90
20829;DHT22;10575;50.124;8.582;2023-01-30T01:11:59;2.10;99.90
20829;DHT22;10575;50.124;8.582;2023-01-30T01:14:25;2.20;99.90
20829;DHT22;10575;50.124;8.582;2023-01-30T01:16:50;2.10;99.90
20829;DHT22;10575;50.124;8.582;2023-01-30T01:19:16;2.10;99.90
20829;DHT22;10575;50.124;8.582;2023-01-30T01:21:41;2.10;99.90
20829;DHT22;10575;50.124;8.582;2023-01-30T01:24:13;2.10;99.90
20829;DHT22;10575;50.124;8.582;2023-01-30T01:26:38;2.10;99.90
20829;DHT22;10575;50.124;8.582;2023-01-30T01:29:04;2.10;99.90
20829;DHT22;10575;50.124;8.582;2023-01-30T01:31:29;2.10;99.90
20829;DHT22;10575;50.124;8.582;2023-01-30T01:33:55;2.10;99.90
20829;DHT22;10575;50.124;8.582;2023-01-30T01:36:21;2.10;99.90
20829;DHT22;10575;50.124;8.582;2023-01-30T01:38:47;2.10;99.90
20829;DHT22;10575;50.124;8.582;2023-01-30T01:41:14;2.00;99.90
20829;DHT22;10575;50.124;8.582;2023-01-30T01:44:04;2.00;99.90
20829;DHT22;10575;50.124;8.582;2023-01-30T01:49:22;1.90;99.90
20829;DHT22;10575;50.124;8.582;2023-01-30T01:59:55;2.10;99.90
20829;DHT22;10575;50.124;8.582;2023-01-30T02:02:22;2.10;99.90
20829;DHT22;10575;50.124;8.582;2023-01-30T02:04:49;2.10;99.90
20829;DHT22;10575;50.124;8.582;2023-01-30T02:07:36;2.00;99.90
20829;DHT22;10575;50.124;8.582;2023-01-30T02:10:02;2.10;99.90
20829;DHT22;10575;50.124;8.582;2023-01-30T02:12:29;2.20;99.90
20829;DHT22;10575;50.124;8.582;2023-01-30T02:14:56;2.20;99.90
20829;DHT22;10575;50.124;8.582;2023-01-30T02:17:23;2.20;99.90
20829;DHT22;10575;50.124;8.582;2023-01-30T02:19:50;2.20;99.90
20829;DHT22;10575;50.124;8.582;2023-01-30T02:22:55;2.20;99.90
20829;DHT22;10575;50.124;8.582;2023-01-30T02:28:44;2.10;99.90
20829;DHT22;10575;50.124;8.582;2023-01-30T02:31:47;2.10;99.90
20829;DHT22;10575;50.124;8.582;2023-01-30T02:37:08;2.20;99.90
20829;DHT22;10575;50.124;8.582;2023-01-30T02:40:16;2.20;99.90
20829;DHT22;10575;50.124;8.582;2023-01-30T02:43:11;2.20;99.90
20829;DHT22;10575;50.124;8.582;2023-01-30T02:45:49;2.20;99.90
20829;DHT22;10575;50.124;8.582;2023-01-30T02:48:26;2.20;99.90
20829;DHT22;10575;50.124;8.582;2023-01-30T02:50:58;2.30;99.90
20829;DHT22;10575;50.124;8.582;2023-01-30T02:53:26;2.30;99.90
20829;DHT22;10575;50.124;8.582;2023-01-30T02:55:54;2.30;99.90
20829;DHT22;10575;50.124;8.582;2023-01-30T02:58:21;2.30;99.90
20829;DHT22;10575;50.124;8.582;2023-01-30T03:09:25;2.30;99.90
20829;DHT22;10575;50.124;8.582;2023-01-30T03:12:08;2.20;99.90
20829;DHT22;10575;50.124;8.582;2023-01-30T03:14:46;2.20;99.90
20829;DHT22;10575;50.124;8.582;2023-01-30T03:17:15;2.10;99.90
20829;DHT22;10575;50.124;8.582;2023-01-30T03:19:42;2.10;99.90
20829;DHT22;10575;50.124;8.582;2023-01-30T03:22:08;2.10;99.90
20829;DHT22;10575;50.124;8.582;2023-01-30T03:24:34;2.10;99.90
20829;DHT22;10575;50.124;8.582;2023-01-30T03:27:07;2.00;99.90
20829;DHT22;10575;50.124;8.582;2023-01-30T03:29:34;2.00;99.90
20829;DHT22;10575;50.124;8.582;2023-01-30T03:32:00;2.00;99.90
20829;DHT22;10575;50.124;8.582;2023-01-30T03:34:25;2.10;99.90
20829;DHT22;10575;50.124;8.582;2023-01-30T03:36:51;2.00;99.90
20829;DHT22;10575;50.124;8.582;2023-01-30T03:39:16;2.10;99.90
20829;DHT22;10575;50.124;8.582;2023-01-30T03:41:42;2.10;99.90
20829;DHT22;10575;50.124;8.582;2023-01-30T03:44:08;2.10;99.90
20829;DHT22;10575;50.124;8.582;2023-01-30T03:46:33;2.20;99.90
20829;DHT22;10575;50.124;8.582;2023-01-30T03:48:59;2.10;99.90
20829;DHT22;10575;50.124;8.582;2023-01-30T03:51:24;2.20;99.90
20829;DHT22;10575;50.124;8.582;2023-01-30T03:53:50;2.20;99.90
20829;DHT22;10575;50.124;8.582;2023-01-30T03:56:16;2.20;99.90
20829;DHT22;10575;50.124;8.582;2023-01-30T03:58:41;2.20;99.90
20829;DHT22;10575;50.124;8.582;2023-01-30T04:01:07;2.20;99.90
20829;DHT22;10575;50.124;8.582;2023-01-30T04:03:33;2.20;99.90
20829;DHT22;10575;50.124;8.582;2023-01-30T04:05:58;2.20;99.90
20829;DHT22;10575;50.124;8.582;2023-01-30T04:08:24;2.30;99.90
20829;DHT22;10575;50.124;8.582;2023-01-30T04:10:49;2.30;99.90
20829;DHT22;10575;50.124;8.582;2023-01-30T04:13:15;2.30;99.90
20829;DHT22;10575;50.124;8.582;2023-01-30T04:15:40;2.40;99.90
20829;DHT22;10575;50.124;8.582;2023-01-30T04:18:06;2.40;99.90
20829;DHT22;10575;50.124;8.582;2023-01-30T04:20:31;2.40;99.90
20829;DHT22;10575;50.124;8.582;2023-01-30T04:22:57;2.50;99.90
20829;DHT22;10575;50.124;8.582;2023-01-30T04:25:22;2.50;99.90
20829;DHT22;10575;50.124;8.582;2023-01-30T04:27:48;2.50;99.90
20829;DHT22;10575;50.124;8.582;2023-01-30T04:30:14;2.50;99.90
20829;DHT22;10575;50.124;8.582;2023-01-30T04:32:39;2.40;99.90
20829;DHT22;10575;50.124;8.582;2023-01-30T04:35:05;2.40;99.90
20829;DHT22;10575;50.124;8.582;2023-01-30T04:37:31;2.40;99.90
20829;DHT22;10575;50.124;8.582;2023-01-30T04:39:56;2.30;99.90
20829;DHT22;10575;50.124;8.582;2023-01-30T04:42:22;2.40;99.90
20829;DHT22;10575;50.124;8.582;2023-01-30T04:44:47;2.40;99.90
20829;DHT22;10575;50.124;8.582;2023-01-30T04:47:13;2.40;99.90
20829;DHT22;10575;50.124;8.582;2023-01-30T04:49:38;2.40;99.90
20829;DHT22;10575;50.124;8.582;2023-01-30T04:52:04;2.40;99.90
20829;DHT22;10575;50.124;8.582;2023-01-30T04:54:29;2.40;99.90
20829;DHT22;10575;50.124;8.582;2023-01-30T04:56:55;2.50;99.90
20829;DHT22;10575;50.124;8.582;2023-01-30T04:59:20;2.50;99.90
20829;DHT22;10575;50.124;8.582;2023-01-30T05:01:46;2.40;99.90
20829;DHT22;10575;50.124;8.582;2023-01-30T05:04:12;2.40;99.90
20829;DHT22;10575;50.124;8.582;2023-01-30T05:06:37;2.40;99.90
20829;DHT22;10575;50.124;8.582;2023-01-30T05:09:03;2.40;99.90
20829;DHT22;10575;50.124;8.582;2023-01-30T05:11:29;2.30;99.90
20829;DHT22;10575;50.124;8.582;2023-01-30T05:13:56;2.30;99.90
20829;DHT22;10575;50.124;8.582;2023-01-30T05:16:23;2.40;99.90
20829;DHT22;10575;50.124;8.582;2023-01-30T05:18:49;2.40;99.90
20829;DHT22;10575;50.124;8.582;2023-01-30T05:21:17;2.40;99.90
20829;DHT22;10575;50.124;8.582;2023-01-30T05:23:43;2.50;99.90
20829;DHT22;10575;50.124;8.582;2023-01-30T05:26:10;2.60;99.90
20829;DHT22;10575;50.124;8.582;2023-01-30T05:28:36;2.60;99.90
20829;DHT22;10575;50.124;8.582;2023-01-30T05:31:02;2.60;99.90
20829;DHT22;10575;50.124;8.582;2023-01-30T05:33:28;2.60;99.90
20829;DHT22;10575;50.124;8.582;2023-01-30T05:35:54;2.60;99.90
20829;DHT22;10575;50.124;8.582;2023-01-30T05:38:21;2.50;99.90
20829;DHT22;10575;50.124;8.582;2023-01-30T05:40:47;2.50;99.90
20829;DHT22;10575;50.124;8.582;2023-01-30T05:43:12;2.50;99.90
20829;DHT22;10575;50.124;8.582;2023-01-30T05:45:38;2.60;99.90
20829;DHT22;10575;50.124;8.582;2023-01-30T05:48:03;2.70;99.90
20829;DHT22;10575;50.124;8.582;2023-01-30T05:50:29;2.60;99.90
20829;DHT22;10575;50.124;8.582;2023-01-30T05:52:55;2.60;99.90
20829;DHT22;10575;50.124;8.582;2023-01-30T05:55:21;2.70;99.90
20829;DHT22;10575;50.124;8.582;2023-01-30T05:57:46;2.60;99.90
20829;DHT22;10575;50.124;8.582;2023-01-30T06:00:12;2.60;99.90
20829;DHT22;10575;50.124;8.582;2023-01-30T06:02:38;2.60;99.90
20829;DHT22;10575;50.124;8.582;2023-01-30T06:05:04;2.50;99.90
20829;DHT22;10575;50.124;8.582;2023-01-30T06:07:29;2.50;99.90
20829;DHT22;10575;50.124;8.582;2023-01-30T06:09:55;2.60;99.90
20829;DHT22;10575;50.124;8.582;2023-01-30T06:12:21;2.70;99.90
20829;DHT22;10575;50.124;8.582;2023-01-30T06:14:46;2.60;99.90
20829;DHT22;10575;50.124;8.582;2023-01-30T06:17:12;2.60;99.90
20829;DHT22;10575;50.124;8.582;2023-01-30T06:19:37;2.60;99.90
20829;DHT22;10575;50.124;8.582;2023-01-30T06:22:03;2.50;99.90
20829;DHT22;10575;50.124;8.582;2023-01-30T06:24:28;2.40;99.90
20829;DHT22;10575;50.124;8.582;2023-01-30T06:26:54;2.50;99.90
20829;DHT22;10575;50.124;8.582;2023-01-30T06:29:19;2.50;99.90
20829;DHT22;10575;50.124;8.582;2023-01-30T06:31:46;2.60;99.90
20829;DHT22;10575;50.124;8.582;2023-01-30T06:34:11;2.60;99.90
20829;DHT22;10575;50.124;8.582;2023-01-30T06:36:37;2.60;99.90
20829;DHT22;10575;50.124;8.582;2023-01-30T06:39:03;2.50;99.90
20829;DHT22;10575;50.124;8.582;2023-01-30T06:41:28;2.50;99.90
20829;DHT22;10575;50.124;8.582;2023-01-30T06:43:54;2.60;99.90
20829;DHT22;10575;50.124;8.582;2023-01-30T06:46:20;2.60;99.90
20829;DHT22;10575;50.124;8.582;2023-01-30T06:48:45;2.70;99.90
20829;DHT22;10575;50.124;8.582;2023-01-30T06:51:11;2.70;99.90
20829;DHT22;10575;50.124;8.582;2023-01-30T06:53:36;2.60;99.90
20829;DHT22;10575;50.124;8.582;2023-01-30T06:56:02;2.60;99.90
20829;DHT22;10575;50.124;8.582;2023-01-30T06:58:28;2.60;99.90
20829;DHT22;10575;50.124;8.582;2023-01-30T07:00:54;2.70;99.90
20829;DHT22;10575;50.124;8.582;2023-01-30T07:03:19;2.70;99.90
20829;DHT22;10575;50.124;8.582;2023-01-30T07:05:46;2.70;99.90
20829;DHT22;10575;50.124;8.582;2023-01-30T07:08:12;2.70;99.90
20829;DHT22;10575;50.124;8.582;2023-01-30T07:10:39;2.70;99.90
20829;DHT22;10575;50.124;8.582;2023-01-30T07:13:05;2.70;99.90
20829;DHT22;10575;50.124;8.582;2023-01-30T07:15:31;2.70;99.90
20829;DHT22;10575;50.124;8.582;2023-01-30T07:17:56;2.70;99.90
20829;DHT22;10575;50.124;8.582;2023-01-30T07:20:22;2.70;99.90
20829;DHT22;10575;50.124;8.582;2023-01-30T07:22:49;2.80;99.90
20829;DHT22;10575;50.124;8.582;2023-01-30T07:25:16;2.80;99.90
20829;DHT22;10575;50.124;8.582;2023-01-30T07:27:41;2.70;99.90
20829;DHT22;10575;50.124;8.582;2023-01-30T07:30:07;2.80;99.90
20829;DHT22;10575;50.124;8.582;2023-01-30T07:32:33;2.80;99.90
20829;DHT22;10575;50.124;8.582;2023-01-30T07:34:58;2.90;99.90
20829;DHT22;10575;50.124;8.582;2023-01-30T07:37:24;2.80;99.90
20829;DHT22;10575;50.124;8.582;2023-01-30T07:39:50;2.90;99.90
20829;DHT22;10575;50.124;8.582;2023-01-30T07:42:15;2.90;99.90
20829;DHT22;10575;50.124;8.582;2023-01-30T07:44:41;2.90;99.90
20829;DHT22;10575;50.124;8.582;2023-01-30T07:47:06;2.90;99.90
20829;DHT22;10575;50.124;8.582;2023-01-30T07:49:32;2.90;99.90
20829;DHT22;10575;50.124;8.582;2023-01-30T07:51:57;2.90;99.90
20829;DHT22;10575;50.124;8.582;2023-01-30T07:54:23;3.00;99.90
20829;DHT22;10575;50.124;8.582;2023-01-30T07:56:49;3.00;99.90
20829;DHT22;10575;50.124;8.582;2023-01-30T07:59:14;3.00;99.90
20829;DHT22;10575;50.124;8.582;2023-01-30T08:01:40;3.00;99.90
20829;DHT22;10575;50.124;8.582;2023-01-30T08:04:05;3.00;99.90
20829;DHT22;10575;50.124;8.582;2023-01-30T08:06:31;3.00;99.90
20829;DHT22;10575;50.124;8.582;2023-01-30T08:08:56;3.00;99.90
20829;DHT22;10575;50.124;8.582;2023-01-30T08:11:22;3.00;99.90
20829;DHT22;10575;50.124;8.582;2023-01-30T08:13:47;2.90;99.90
20829;DHT22;10575;50.124;8.582;2023-01-30T08:16:13;2.90;99.90
20829;DHT22;10575;50.124;8.582;2023-01-30T08:18:38;2.90;99.90
20829;DHT22;10575;50.124;8.582;2023-01-30T08:21:05;2.90;99.90
20829;DHT22;10575;50.124;8.582;2023-01-30T08:23:32;3.00;99.90
20829;DHT22;10575;50.124;8.582;2023-01-30T08:26:00;3.00;99.90
20829;DHT22;10575;50.124;8.582;2023-01-30T08:28:27;3.00;99.90
20829;DHT22;10575;50.124;8.582;2023-01-30T08:30:53;3.00;99.90
20829;DHT22;10575;50.124;8.582;2023-01-30T08:33:23;3.00;99.90
20829;DHT22;10575;50.124;8.582;2023-01-30T08:35:49;2.90;99.90
20829;DHT22;10575;50.124;8.582;2023-01-30T08:38:14;3.00;99.90
20829;DHT22;10575;50.124;8.582;2023-01-30T08:40:40;3.10;99.90
20829;DHT22;10575;50.124;8.582;2023-01-30T08:43:06;3.10;99.90
20829;DHT22;10575;50.124;8.582;2023-01-30T08:45:32;3.20;99.90
20829;DHT22;10575;50.124;8.582;2023-01-30T08:48:00;3.30;99.90
20829;DHT22;10575;50.124;8.582;2023-01-30T08:50:27;3.30;99.90
20829;DHT22;10575;50.124;8.582;2023-01-30T08:52:53;3.30;99.90
20829;DHT22;10575;50.124;8.582;2023-01-30T08:55:19;3.20;99.90
20829;DHT22;10575;50.124;8.582;2023-01-30T08:57:45;3.30;99.90
20829;DHT22;10575;50.124;8.582;2023-01-30T09:00:13;3.30;99.90
20829;DHT22;10575;50.124;8.582;2023-01-30T09:02:39;3.30;99.90
20829;DHT22;10575;50.124;8.582;2023-01-30T09:05:05;3.30;99.90
20829;DHT22;10575;50.124;8.582;2023-01-30T09:07:31;3.30;99.90
20829;DHT22;10575;50.124;8.582;2023-01-30T09:09:57;3.30;99.90
20829;DHT22;10575;50.124;8.582;2023-01-30T09:12:23;3.40;99.90
20829;DHT22;10575;50.124;8.582;2023-01-30T09:14:48;3.40;99.90
20829;DHT22;10575;50.124;8.582;2023-01-30T09:17:14;3.40;99.90
20829;DHT22;10575;50.124;8.582;2023-01-30T09:19:39;3.30;99.90
20829;DHT22;10575;50.124;8.582;2023-01-30T09:22:05;3.40;99.90
20829;DHT22;10575;50.124;8.582;2023-01-30T09:24:34;3.40;99.90
20829;DHT22;10575;50.124;8.582;2023-01-30T09:26:59;3.50;99.90
20829;DHT22;10575;50.124;8.582;2023-01-30T09:29:25;3.50;99.90
20829;DHT22;10575;50.124;8.582;2023-01-30T09:31:52;3.50;99.90
20829;DHT22;10575;50.124;8.582;2023-01-30T09:34:17;3.50;99.90
20829;DHT22;10575;50.124;8.582;2023-01-30T09:36:43;3.50;99.90
20829;DHT22;10575;50.124;8.582;2023-01-30T09:39:09;3.40;99.90
20829;DHT22;10575;50.124;8.582;2023-01-30T09:41:49;3.50;99.90
20829;DHT22;10575;50.124;8.582;2023-01-30T09:47:39;3.50;99.90
20829;DHT22;10575;50.124;8.582;2023-01-30T09:53:13;3.50;99.90
20829;DHT22;10575;50.124;8.582;2023-01-30T09:55:41;3.50;99.90
20829;DHT22;10575;50.124;8.582;2023-01-30T09:58:21;3.60;99.90
20829;DHT22;10575;50.124;8.582;2023-01-30T10:00:49;3.70;99.90
20829;DHT22;10575;50.124;8.582;2023-01-30T10:03:16;3.80;99.90
20829;DHT22;10575;50.124;8.582;2023-01-30T10:05:59;3.80;99.90
20829;DHT22;10575;50.124;8.582;2023-01-30T10:11:31;3.90;99.90
20829;DHT22;10575;50.124;8.582;2023-01-30T10:19:59;4.10;99.90
20829;DHT22;10575;50.124;8.582;2023-01-30T10:25:46;4.20;99.90
20829;DHT22;10575;50.124;8.582;2023-01-30T10:31:15;4.20;99.90
20829;DHT22;10575;50.124;8.582;2023-01-30T10:36:35;4.30;99.90
20829;DHT22;10575;50.124;8.582;2023-01-30T10:39:03;4.40;99.90
20829;DHT22;10575;50.124;8.582;2023-01-30T10:41:38;4.60;99.90
20829;DHT22;10575;50.124;8.582;2023-01-30T10:44:10;4.70;99.90
20829;DHT22;10575;50.124;8.582;2023-01-30T10:49:39;4.90;99.90
20829;DHT22;10575;50.124;8.582;2023-01-30T11:00:16;4.90;99.90
20829;DHT22;10575;50.124;8.582;2023-01-30T11:03:03;4.90;99.90
20829;DHT22;10575;50.124;8.582;2023-01-30T11:05:43;4.90;99.90
20829;DHT22;10575;50.124;8.582;2023-01-30T11:10:44;5.10;99.90
20829;DHT22;10575;50.124;8.582;2023-01-30T11:13:17;5.20;99.90
20829;DHT22;10575;50.124;8.582;2023-01-30T11:15:45;5.30;99.90
20829;DHT22;10575;50.124;8.582;2023-01-30T11:18:12;5.40;99.90
20829;DHT22;10575;50.124;8.582;2023-01-30T11:20:44;5.50;99.90
20829;DHT22;10575;50.124;8.582;2023-01-30T11:23:41;5.70;99.90
20829;DHT22;10575;50.124;8.582;2023-01-30T11:26:18;5.80;99.90
20829;DHT22;10575;50.124;8.582;2023-01-30T11:28:44;5.90;99.90
20829;DHT22;10575;50.124;8.582;2023-01-30T11:31:24;5.90;99.90
20829;DHT22;10575;50.124;8.582;2023-01-30T11:34:03;5.90;99.90
20829;DHT22;10575;50.124;8.582;2023-01-30T11:36:33;6.00;99.90
20829;DHT22;10575;50.124;8.582;2023-01-30T11:41:58;6.20;99.90
20829;DHT22;10575;50.124;8.582;2023-01-30T11:44:28;6.20;99.90
20829;DHT22;10575;50.124;8.582;2023-01-30T11:47:01;6.40;99.90
20829;DHT22;10575;50.124;8.582;2023-01-30T11:49:32;6.60;99.90
20829;DHT22;10575;50.124;8.582;2023-01-30T11:52:00;6.80;99.90
20829;DHT22;10575;50.124;8.582;2023-01-30T11:54:41;6.90;99.90
20829;DHT22;10575;50.124;8.582;2023-01-30T11:57:16;7.10;99.90
20829;DHT22;10575;50.124;8.582;2023-01-30T11:59:46;7.00;99.90
20829;DHT22;10575;50.124;8.582;2023-01-30T12:02:23;6.80;99.90
20829;DHT22;10575;50.124;8.582;2023-01-30T12:04:53;6.70;99.90
20829;DHT22;10575;50.124;8.582;2023-01-30T12:07:25;6.60;99.90
20829;DHT22;10575;50.124;8.582;2023-01-30T12:09:52;6.40;99.90
20829;DHT22;10575;50.124;8.582;2023-01-30T12:12:33;6.30;99.90
20829;DHT22;10575;50.124;8.582;2023-01-30T12:17:56;6.20;99.90
20829;DHT22;10575;50.124;8.582;2023-01-30T12:20:48;6.10;99.90
20829;DHT22;10575;50.124;8.582;2023-01-30T12:26:25;6.10;99.90
20829;DHT22;10575;50.124;8.582;2023-01-30T12:32:15;6.10;99.90
20829;DHT22;10575;50.124;8.582;2023-01-30T12:34:42;6.20;99.90
20829;DHT22;10575;50.124;8.582;2023-01-30T12:45:17;6.10;99.90
20829;DHT22;10575;50.124;8.582;2023-01-30T12:48:06;6.30;99.90
20829;DHT22;10575;50.124;8.582;2023-01-30T12:51:04;6.30;99.90
20829;DHT22;10575;50.124;8.582;2023-01-30T12:53:54;6.40;99.90
20829;DHT22;10575;50.124;8.582;2023-01-30T13:04:15;6.60;99.90
20829;DHT22;10575;50.124;8.582;2023-01-30T13:06:44;6.70;99.90
20829;DHT22;10575;50.124;8.582;2023-01-30T13:12:30;6.60;99.90
20829;DHT22;10575;50.124;8.582;2023-01-30T13:20:51;6.50;99.90
20829;DHT22;10575;50.124;8.582;2023-01-30T13:26:20;6.40;99.90
20829;DHT22;10575;50.124;8.582;2023-01-30T13:28:59;6.40;99.90
20829;DHT22;10575;50.124;8.582;2023-01-30T13:31:30;6.50;99.90
20829;DHT22;10575;50.124;8.582;2023-01-30T13:34:11;6.50;99.90
20829;DHT22;10575;50.124;8.582;2023-01-30T13:36:46;6.60;99.90
20829;DHT22;10575;50.124;8.582;2023-01-30T13:41:57;6.60;99.90
20829;DHT22;10575;50.124;8.582;2023-01-30T13:44:27;6.70;99.90
20829;DHT22;10575;50.124;8.582;2023-01-30T13:47:35;6.60;99.90
20829;DHT22;10575;50.124;8.582;2023-01-30T13:52:30;6.80;99.90
20829;DHT22;10575;50.124;8.582;2023-01-30T13:55:24;6.90;99.90
20829;DHT22;10575;50.124;8.582;2023-01-30T13:58:08;6.90;99.90
20829;DHT22;10575;50.124;8.582;2023-01-30T14:00:35;7.00;99.90
20829;DHT22;10575;50.124;8.582;2023-01-30T14:08:26;6.80;99.90
20829;DHT22;10575;50.124;8.582;2023-01-30T14:10:54;7.00;99.90
20829;DHT22;10575;50.124;8.582;2023-01-30T14:13:22;6.90;99.90
20829;DHT22;10575;50.124;8.582;2023-01-30T14:15:54;7.00;99.90
20829;DHT22;10575;50.124;8.582;2023-01-30T14:18:32;7.00;99.90
20829;DHT22;10575;50.124;8.582;2023-01-30T14:21:13;7.00;99.90
20829;DHT22;10575;50.124;8.582;2023-01-30T14:23:41;7.00;99.90
20829;DHT22;10575;50.124;8.582;2023-01-30T14:26:07;6.90;99.90
20829;DHT22;10575;50.124;8.582;2023-01-30T14:28:45;6.90;99.90
20829;DHT22;10575;50.124;8.582;2023-01-30T14:31:11;6.90;99.90
20829;DHT22;10575;50.124;8.582;2023-01-30T14:33:56;6.80;99.90
20829;DHT22;10575;50.124;8.582;2023-01-30T14:38:56;6.70;99.90
20829;DHT22;10575;50.124;8.582;2023-01-30T14:41:41;6.80;99.90
20829;DHT22;10575;50.124;8.582;2023-01-30T14:44:06;7.00;99.90
20829;DHT22;10575;50.124;8.582;2023-01-30T14:46:39;7.10;99.90
20829;DHT22;10575;50.124;8.582;2023-01-30T14:49:27;7.20;99.90
20829;DHT22;10575;50.124;8.582;2023-01-30T14:51:53;7.20;99.90
20829;DHT22;10575;50.124;8.582;2023-01-30T14:54:25;7.20;99.90
20829;DHT22;10575;50.124;8.582;2023-01-30T14:56:58;7.20;99.90
20829;DHT22;10575;50.124;8.582;2023-01-30T14:59:32;7.20;99.90
20829;DHT22;10575;50.124;8.582;2023-01-30T15:02:03;7.10;99.90
20829;DHT22;10575;50.124;8.582;2023-01-30T15:07:08;7.10;99.90
20829;DHT22;10575;50.124;8.582;2023-01-30T15:09:36;7.00;99.90
20829;DHT22;10575;50.124;8.582;2023-01-30T15:12:48;6.90;99.90
20829;DHT22;10575;50.124;8.582;2023-01-30T15:15:06;6.80;99.90
20829;DHT22;10575;50.124;8.582;2023-01-30T15:20:44;6.80;99.90
20829;DHT22;10575;50.124;8.582;2023-01-30T15:23:25;6.80;99.90
20829;DHT22;10575;50.124;8.582;2023-01-30T15:29:17;6.80;99.90
20829;DHT22;10575;50.124;8.582;2023-01-30T15:31:58;6.90;99.90
20829;DHT22;10575;50.124;8.582;2023-01-30T15:34:27;6.90;99.90
20829;DHT22;10575;50.124;8.582;2023-01-30T15:36:53;6.80;99.90
20829;DHT22;10575;50.124;8.582;2023-01-30T15:39:37;6.70;99.90
20829;DHT22;10575;50.124;8.582;2023-01-30T15:42:05;6.70;99.90
20829;DHT22;10575;50.124;8.582;2023-01-30T15:44:50;6.70;99.90
20829;DHT22;10575;50.124;8.582;2023-01-30T15:47:40;6.70;99.90
20829;DHT22;10575;50.124;8.582;2023-01-30T15:50:09;6.60;99.90
20829;DHT22;10575;50.124;8.582;2023-01-30T15:52:46;6.50;99.90
20829;DHT22;10575;50.124;8.582;2023-01-30T15:55:32;6.50;99.90
20829;DHT22;10575;50.124;8.582;2023-01-30T15:58:05;6.50;99.90
20829;DHT22;10575;50.124;8.582;2023-01-30T16:00:43;6.50;99.90
20829;DHT22;10575;50.124;8.582;2023-01-30T16:03:12;6.50;99.90
20829;DHT22;10575;50.124;8.582;2023-01-30T16:05:46;6.50;99.90
20829;DHT22;10575;50.124;8.582;2023-01-30T16:08:24;6.50;99.90
20829;DHT22;10575;50.124;8.582;2023-01-30T16:10:51;6.50;99.90
20829;DHT22;10575;50.124;8.582;2023-01-30T16:13:20;6.40;99.90
20829;DHT22;10575;50.124;8.582;2023-01-30T16:18:32;6.50;99.90
20829;DHT22;10575;50.124;8.582;2023-01-30T16:21:24;6.50;99.90
20829;DHT22;10575;50.124;8.582;2023-01-30T16:24:03;6.60;99.90
20829;DHT22;10575;50.124;8.582;2023-01-30T16:26:29;6.50;99.90
20829;DHT22;10575;50.124;8.582;2023-01-30T16:29:04;6.40;99.90
20829;DHT22;10575;50.124;8.582;2023-01-30T16:31:32;6.40;99.90
20829;DHT22;10575;50.124;8.582;2023-01-30T16:33:58;6.40;99.90
20829;DHT22;10575;50.124;8.582;2023-01-30T16:38:50;6.20;99.90
20829;DHT22;10575;50.124;8.582;2023-01-30T16:41:36;6.20;99.90
20829;DHT22;10575;50.124;8.582;2023-01-30T16:44:17;6.10;99.90
20829;DHT22;10575;50.124;8.582;2023-01-30T16:46:47;6.10;99.90
20829;DHT22;10575;50.124;8.582;2023-01-30T16:49:23;6.10;99.90
20829;DHT22;10575;50.124;8.582;2023-01-30T16:51:58;6.10;99.90
20829;DHT22;10575;50.124;8.582;2023-01-30T16:54:27;6.10;99.90
20829;DHT22;10575;50.124;8.582;2023-01-30T16:56:55;6.20;99.90
20829;DHT22;10575;50.124;8.582;2023-01-30T16:59:30;6.30;99.90
20829;DHT22;10575;50.124;8.582;2023-01-30T17:01:56;6.40;99.90
20829;DHT22;10575;50.124;8.582;2023-01-30T17:04:30;6.30;99.90
20829;DHT22;10575;50.124;8.582;2023-01-30T17:07:01;6.20;99.90
20829;DHT22;10575;50.124;8.582;2023-01-30T17:09:45;6.20;99.90
20829;DHT22;10575;50.124;8.582;2023-01-30T17:12:32;6.30;99.90
20829;DHT22;10575;50.124;8.582;2023-01-30T17:17:34;6.20;99.90
20829;DHT22;10575;50.124;8.582;2023-01-30T17:19:59;6.30;99.90
20829;DHT22;10575;50.124;8.582;2023-01-30T17:22:25;6.20;99.90
20829;DHT22;10575;50.124;8.582;2023-01-30T17:24:53;6.20;99.90
20829;DHT22;10575;50.124;8.582;2023-01-30T17:27:23;6.20;99.90
20829;DHT22;10575;50.124;8.582;2023-01-30T17:29:49;6.20;99.90
20829;DHT22;10575;50.124;8.582;2023-01-30T17:32:15;6.20;99.90
20829;DHT22;10575;50.124;8.582;2023-01-30T17:34:41;6.20;99.90
20829;DHT22;10575;50.124;8.582;2023-01-30T17:37:15;6.20;99.90
20829;DHT22;10575;50.124;8.582;2023-01-30T17:39:41;6.30;99.90
20829;DHT22;10575;50.124;8.582;2023-01-30T17:42:11;6.30;99.90
20829;DHT22;10575;50.124;8.582;2023-01-30T17:44:37;6.40;99.90
20829;DHT22;10575;50.124;8.582;2023-01-30T17:47:02;6.40;99.90
20829;DHT22;10575;50.124;8.582;2023-01-30T17:49:28;6.30;99.90
20829;DHT22;10575;50.124;8.582;2023-01-30T17:51:53;6.30;99.90
20829;DHT22;10575;50.124;8.582;2023-01-30T17:54:24;6.30;99.90
20829;DHT22;10575;50.124;8.582;2023-01-30T17:56:53;6.20;99.90
20829;DHT22;10575;50.124;8.582;2023-01-30T17:59:20;6.20;99.90
20829;DHT22;10575;50.124;8.582;2023-01-30T18:01:48;6.20;99.90
20829;DHT22;10575;50.124;8.582;2023-01-30T18:04:14;6.20;99.90
20829;DHT22;10575;50.124;8.582;2023-01-30T18:06:41;6.10;99.90
20829;DHT22;10575;50.124;8.582;2023-01-30T18:09:11;6.00;99.90
20829;DHT22;10575;50.124;8.582;2023-01-30T18:11:37;6.00;99.90
20829;DHT22;10575;50.124;8.582;2023-01-30T18:14:03;5.90;99.90